Time;durP1;ratioP1;P1;durP2;ratioP2;P2;SDS_P1;SDS_P2;PMS_P1;PMS_P2;Temp;Humidity;BMP_temperature;BMP_pressure;BME280_temperature;BME280_humidity;BME280_pressure;Samples;Min_cycle;Max_cycle;Signal;HPM_P1;HPM_P2
2021/12/07 00:02:13;;;;;;;23.52;10.25;;;;;;;-2.72;77.31;100172.56;4826042;29;20469;-85
2021/12/07 00:04:41;;;;;;;22.50;9.98;;;;;;;-2.73;77.66;100174.25;4826283;29;20469;-85
2021/12/07 00:07:08;;;;;;;21.73;10.45;;;;;;;-2.80;77.51;100161.84;4826389;29;20508;-84
2021/12/07 00:09:36;;;;;;;24.23;10.23;;;;;;;-2.70;77.69;100164.19;4826924;29;20086;-86
2021/12/07 00:12:04;;;;;;;23.65;10.48;;;;;;;-2.74;77.38;100152.00;4841496;29;20038;-85
2021/12/07 00:14:38;;;;;;;20.08;9.65;;;;;;;-2.79;77.78;100163.63;4848534;29;20039;-84
2021/12/07 00:17:06;;;;;;;22.23;10.27;;;;;;;-2.74;78.17;100172.47;4846798;29;20062;-83
2021/12/07 00:19:34;;;;;;;22.42;9.50;;;;;;;-2.74;77.76;100169.03;4838203;29;20059;-87
2021/12/07 00:22:04;;;;;;;22.63;10.05;;;;;;;-2.70;77.87;100176.97;4830965;29;20069;-86
2021/12/07 00:24:32;;;;;;;20.92;9.43;;;;;;;-2.73;78.43;100158.00;4832435;29;20091;-87
2021/12/07 00:26:59;;;;;;;21.73;10.30;;;;;;;-2.77;77.85;100133.94;4826248;29;20523;-89
2021/12/07 00:29:27;;;;;;;21.63;9.48;;;;;;;-2.70;78.03;100153.97;4825302;29;20055;-87
2021/12/07 00:35:13;;;;;;;19.55;9.43;;;;;;;-2.77;78.25;100121.16;4805869;29;20050;-88
2021/12/07 00:37:50;;;;;;;20.40;9.30;;;;;;;-2.77;78.49;100131.38;4812986;29;20511;-90
2021/12/07 00:40:19;;;;;;;20.73;9.65;;;;;;;-2.73;78.60;100133.34;4826795;29;20085;-86
2021/12/07 00:42:47;;;;;;;21.07;9.30;;;;;;;-2.64;78.26;100147.47;4842144;29;20061;-83
2021/12/07 00:45:18;;;;;;;20.10;9.05;;;;;;;-2.79;78.38;100109.94;4828649;29;20119;-85
2021/12/07 00:47:47;;;;;;;22.73;9.45;;;;;;;-2.71;78.42;100121.53;4824425;29;20501;-89
2021/12/07 00:50:16;;;;;;;20.33;9.45;;;;;;;-2.66;78.37;100110.69;4824315;29;20064;-87
2021/12/07 00:52:44;;;;;;;23.63;10.25;;;;;;;-2.85;78.64;100080.56;4825451;29;20081;-88
2021/12/07 00:55:18;;;;;;;19.38;8.95;;;;;;;-2.68;78.47;100111.47;4824271;29;20445;-86
2021/12/07 00:57:49;;;;;;;22.05;9.70;;;;;;;-2.70;78.58;100100.25;4824717;29;20058;-87
2021/12/07 01:00:18;;;;;;;22.95;9.75;;;;;;;-2.79;79.00;100081.81;4823602;29;20075;-86
2021/12/07 01:02:45;;;;;;;21.38;10.40;;;;;;;-2.74;78.87;100095.75;4824889;29;20062;-85
2021/12/07 01:05:20;;;;;;;22.77;10.45;;;;;;;-2.82;78.89;100078.19;4823986;29;20579;-88
2021/12/07 01:26:51;;;;;;;20.20;9.43;;;;;;;-2.71;79.72;100070.38;4825300;29;20055;-87
2021/12/07 01:29:22;;;;;;;19.88;8.73;;;;;;;-2.98;79.73;100017.59;4801811;29;20551;-86
2021/12/07 02:01:36;;;;;;;22.65;10.35;;;;;;;-2.35;79.43;100018.69;4836540;29;20150;-83
2021/12/07 02:04:04;;;;;;;21.52;10.55;;;;;;;-2.26;79.27;100026.88;4835551;29;20062;-85
2021/12/07 02:06:32;;;;;;;21.10;9.07;;;;;;;-2.24;79.42;100016.75;4839138;29;20106;-82
2021/12/07 02:08:59;;;;;;;21.80;10.65;;;;;;;-2.34;79.18;100010.25;4832617;29;20501;-83
2021/12/07 02:11:30;;;;;;;19.67;10.02;;;;;;;-2.35;79.58;100013.59;4826992;29;20149;-87
2021/12/07 02:16:30;;;;;;;21.38;10.40;;;;;;;-2.33;80.06;100014.56;4827645;29;20110;-88
2021/12/07 02:19:00;;;;;;;23.40;10.32;;;;;;;-2.34;79.89;100000.00;4830649;29;20145;-84
2021/12/07 02:21:27;;;;;;;19.98;9.70;;;;;;;-2.31;79.96;100007.84;4848428;29;20034;-85
2021/12/07 02:24:02;;;;;;;19.83;9.00;;;;;;;-2.72;79.83;99938.19;4850613;29;20038;-86
2021/12/07 02:26:30;;;;;;;16.33;8.38;;;;;;;-2.39;80.02;100003.97;4850181;29;20045;-87
2021/12/07 02:28:57;;;;;;;17.88;8.48;;;;;;;-2.61;80.25;99984.81;4850799;29;20067;-84
2021/12/07 02:31:25;;;;;;;20.08;8.90;;;;;;;-2.48;80.35;99999.19;4834902;29;20030;-82
2021/12/07 02:33:54;;;;;;;16.23;8.32;;;;;;;-2.55;80.71;99991.97;4832119;29;20078;-83
2021/12/07 02:36:23;;;;;;;;;;;;;;;-2.65;80.82;99992.22;4810143;29;20369;-86
2021/12/07 02:38:52;;;;;;;18.83;8.23;;;;;;;-2.61;80.95;99989.94;4837569;29;19967;-85
2021/12/07 02:41:20;;;;;;;20.95;9.02;;;;;;;-2.63;81.20;99993.22;4843001;29;20050;-81
2021/12/07 02:43:48;;;;;;;19.15;8.63;;;;;;;-2.61;80.94;99978.84;4837071;29;20054;-84
2021/12/07 02:46:17;;;;;;;18.77;8.50;;;;;;;-2.57;81.27;99979.09;4811985;29;20102;-85
2021/12/07 02:48:46;;;;;;;19.90;7.93;;;;;;;-2.54;81.18;99998.84;4826160;29;20507;-86
2021/12/07 02:51:15;;;;;;;18.63;8.10;;;;;;;-2.49;81.22;99987.22;4826029;29;20075;-84
2021/12/07 02:53:43;;;;;;;20.95;9.20;;;;;;;-2.49;80.77;99957.41;4812819;29;20054;-84
2021/12/07 02:56:10;;;;;;;16.33;7.65;;;;;;;-2.47;80.78;99971.16;4833365;29;20388;-87
2021/12/07 02:58:42;;;;;;;19.15;8.85;;;;;;;-2.44;80.80;99974.69;4827538;29;20062;-87
2021/12/07 03:01:23;;;;;;;18.90;8.18;;;;;;;-2.44;81.17;99970.44;4810399;29;20058;-85
2021/12/07 03:04:09;;;;;;;16.83;7.63;;;;;;;-2.37;81.13;99975.09;4826179;29;20054;-87
2021/12/07 03:26:09;;;;;;;17.13;8.00;;;;;;;-2.44;80.65;99929.50;4825925;29;20082;-86
2021/12/07 03:28:49;;;;;;;17.55;8.30;;;;;;;-2.35;80.86;99939.38;4825891;29;20062;-87
2021/12/07 03:31:21;;;;;;;16.17;7.75;;;;;;;-2.35;81.29;99947.94;4826205;29;20058;-90
2021/12/07 03:33:49;;;;;;;18.67;7.80;;;;;;;-2.39;81.23;99934.88;4828058;29;20062;-84
2021/12/07 03:36:17;;;;;;;17.70;8.02;;;;;;;-2.38;80.96;99921.31;4825753;29;20458;-86
2021/12/07 03:38:46;;;;;;;16.13;7.60;;;;;;;-2.32;81.04;99934.44;4825106;29;20508;-83
2021/12/07 03:41:14;;;;;;;17.05;7.68;;;;;;;-2.32;81.33;99925.09;4824969;29;20141;-83
2021/12/07 03:43:42;;;;;;;17.45;8.20;;;;;;;-2.31;81.54;99911.47;4825823;29;20061;-82
2021/12/07 03:46:10;;;;;;;20.80;8.13;;;;;;;-2.33;81.21;99892.59;4824669;29;20069;-82
2021/12/07 03:48:38;;;;;;;19.05;8.32;;;;;;;-2.45;81.43;99881.72;4825552;29;20066;-82
2021/12/07 03:51:05;;;;;;;16.15;7.88;;;;;;;-2.28;81.61;99898.88;4824761;29;20066;-82
2021/12/07 03:53:34;;;;;;;17.27;7.43;;;;;;;-2.24;81.26;99896.47;4824610;29;20081;-81
2021/12/07 03:56:07;;;;;;;20.63;8.38;;;;;;;-2.27;81.40;99887.81;4824997;29;20058;-83
2021/12/07 03:58:38;;;;;;;17.52;7.90;;;;;;;-2.31;81.66;99887.56;4831445;29;20086;-82
2021/12/07 04:01:09;;;;;;;17.83;7.88;;;;;;;-2.48;81.66;99854.25;4824321;29;20073;-83
2021/12/07 04:03:39;;;;;;;19.20;7.65;;;;;;;-2.41;81.39;99864.84;4810099;29;20061;-84
2021/12/07 04:06:06;;;;;;;14.50;7.57;;;;;;;-2.42;81.79;99853.72;4824995;29;20560;-84
2021/12/07 04:08:39;;;;;;;16.13;7.05;;;;;;;-2.28;81.73;99870.72;4827648;29;20054;-83
2021/12/07 04:11:06;;;;;;;16.90;7.57;;;;;;;-2.33;81.69;99864.44;4827621;29;20054;-86
2021/12/07 04:13:35;;;;;;;19.60;8.07;;;;;;;-2.31;81.51;99867.97;4813730;29;20062;-83
2021/12/07 04:16:06;;;;;;;19.55;8.40;;;;;;;-2.30;82.11;99859.53;4827808;29;20046;-81
2021/12/07 04:18:33;;;;;;;15.65;7.22;;;;;;;-2.33;82.15;99849.09;4824505;29;20107;-82
2021/12/07 04:21:02;;;;;;;18.25;8.13;;;;;;;-2.28;81.72;99844.22;4808964;29;20423;-81
2021/12/07 04:23:32;;;;;;;17.17;8.45;;;;;;;-2.42;81.65;99825.59;4825642;29;20086;-81
2021/12/07 04:26:02;;;;;;;16.77;8.55;;;;;;;-2.28;81.70;99852.81;4825180;29;20153;-85
2021/12/07 04:28:29;;;;;;;17.23;7.63;;;;;;;-2.31;82.02;99836.41;4823866;29;20134;-83
2021/12/07 04:30:57;;;;;;;17.02;7.53;;;;;;;-2.29;81.70;99832.25;4824050;29;20054;-84
2021/12/07 04:33:25;;;;;;;20.35;8.77;;;;;;;-2.26;81.92;99834.97;4824453;29;20054;-84
2021/12/07 04:35:52;;;;;;;19.02;8.57;;;;;;;-2.27;81.88;99833.22;4823585;29;20046;-84
2021/12/07 04:38:19;;;;;;;16.05;8.48;;;;;;;-2.27;82.09;99826.41;4825894;29;20058;-85
2021/12/07 04:40:47;;;;;;;15.63;7.47;;;;;;;-2.23;81.99;99831.72;4836040;29;20069;-84
2021/12/07 04:43:15;;;;;;;18.30;7.70;;;;;;;-2.24;82.14;99814.56;4827687;29;20058;-83
2021/12/07 04:59:09;;;;;;;18.45;8.57;;;;;;;-2.17;81.99;99806.41;4837568;29;20066;-81
2021/12/07 05:01:36;;;;;;;18.05;8.77;;;;;;;-2.21;82.22;99787.47;4838145;29;20099;-84
2021/12/07 05:04:19;;;;;;;21.55;9.20;;;;;;;-2.19;82.28;99791.00;4832703;29;20568;-86
2021/12/07 05:06:50;;;;;;;21.33;9.90;;;;;;;-2.25;82.96;99777.00;4828041;29;20111;-82
2021/12/07 05:09:43;;;;;;;18.20;9.30;;;;;;;-2.27;82.72;99772.66;4842126;29;20054;-81
2021/12/07 05:14:40;;;;;;;21.20;8.70;;;;;;;-2.13;83.07;99768.28;4844067;29;20065;-83
2021/12/07 05:38:52;;;;;;;27.20;12.77;;;;;;;-2.06;83.43;99731.09;4805422;29;20536;-86
2021/12/07 05:41:19;;;;;;;26.55;12.50;;;;;;;-2.21;83.39;99704.72;4807438;29;20359;-88
2021/12/07 05:43:47;;;;;;;26.02;12.68;;;;;;;-2.14;83.49;99702.53;4805470;29;20089;-89
2021/12/07 05:46:14;;;;;;;24.95;11.18;;;;;;;-2.00;83.33;99708.38;4806634;29;20149;-86
2021/12/07 05:48:42;;;;;;;25.95;12.27;;;;;;;-1.93;83.41;99728.34;4806474;29;20090;-84
2021/12/07 05:51:10;;;;;;;26.42;11.93;;;;;;;-1.92;83.10;99712.19;4806270;29;20154;-84
2021/12/07 05:53:37;;;;;;;25.33;11.68;;;;;;;-1.94;83.60;99700.09;4804785;29;20065;-83
2021/12/07 05:56:05;;;;;;;24.70;11.52;;;;;;;-1.88;83.09;99696.16;4805789;29;20070;-84
2021/12/07 05:58:32;;;;;;;25.95;12.60;;;;;;;-1.87;82.81;99707.31;4790069;29;20055;-87
2021/12/07 06:00:59;;;;;;;26.95;12.95;;;;;;;-1.83;83.04;99710.88;4791267;29;20073;-84
2021/12/07 06:03:27;;;;;;;23.63;11.43;;;;;;;-1.87;82.90;99684.28;4806645;29;20524;-86
2021/12/07 06:05:55;;;;;;;26.95;13.23;;;;;;;-1.84;83.02;99686.97;4806784;29;20111;-85
2021/12/07 06:08:22;;;;;;;27.60;12.85;;;;;;;-1.72;83.07;99695.28;4805954;29;20528;-86
2021/12/07 06:10:50;;;;;;;24.65;13.02;;;;;;;-1.70;82.82;99677.41;4810411;29;20516;-84
2021/12/07 06:13:21;;;;;;;28.02;13.52;;;;;;;-1.60;82.96;99704.34;4804713;29;20055;-87
2021/12/07 06:15:48;;;;;;;27.73;13.45;;;;;;;-1.53;82.37;99701.28;4805638;29;20531;-85
2021/12/07 06:18:16;;;;;;;27.05;13.75;;;;;;;-1.66;82.59;99676.75;4804395;29;20512;-85
2021/12/07 06:20:43;;;;;;;26.25;14.45;;;;;;;-1.55;82.08;99693.53;4804824;29;20082;-86
2021/12/07 06:23:13;;;;;;;26.95;13.93;;;;;;;-1.49;82.71;99711.75;4805511;29;20505;-86
2021/12/07 06:25:41;;;;;;;32.42;13.98;;;;;;;-1.49;82.35;99691.25;4804951;29;20063;-86
2021/12/07 06:28:09;;;;;;;28.02;14.20;;;;;;;-1.53;82.68;99691.91;4805975;29;20059;-86
2021/12/07 06:30:40;;;;;;;26.05;14.98;;;;;;;-1.56;82.43;99689.19;4814524;29;20598;-86
2021/12/07 06:33:08;;;;;;;25.15;13.25;;;;;;;-1.51;82.73;99697.09;4823424;29;20449;-85
2021/12/07 06:35:35;;;;;;;27.13;13.25;;;;;;;-1.67;82.60;99660.50;4823502;29;20082;-85
2021/12/07 06:38:02;;;;;;;28.70;14.82;;;;;;;-1.58;82.51;99690.81;4824499;29;20054;-87
2021/12/07 06:40:30;;;;;;;27.35;12.07;;;;;;;-1.51;82.69;99699.66;4837712;29;20062;-85
2021/12/07 06:43:00;;;;;;;25.52;11.00;;;;;;;-1.49;82.62;99711.75;4830826;29;20119;-85
2021/12/07 06:45:29;;;;;;;21.50;9.90;;;;;;;-1.50;82.75;99694.63;4826646;29;20070;-87
2021/12/07 06:47:58;;;;;;;20.45;11.07;;;;;;;-1.45;83.03;99707.66;4825909;29;20058;-86
2021/12/07 06:50:26;;;;;;;18.88;9.35;;;;;;;-1.40;82.89;99702.75;4825493;29;20062;-87
2021/12/07 06:52:53;;;;;;;16.67;8.45;;;;;;;-1.45;82.59;99698.28;4821863;29;20059;-85
2021/12/07 06:55:21;;;;;;;15.73;7.88;;;;;;;-1.40;82.40;99705.31;4813925;29;20062;-86
2021/12/07 06:57:48;;;;;;;17.05;7.93;;;;;;;-1.40;82.64;99695.06;4828311;29;20062;-86
2021/12/07 07:00:17;;;;;;;17.67;7.70;;;;;;;-1.43;82.94;99674.44;4821961;29;20101;-88
2021/12/07 07:02:45;;;;;;;13.02;6.75;;;;;;;-1.35;82.44;99689.38;4826231;29;20059;-87
2021/12/07 07:05:13;;;;;;;16.27;7.50;;;;;;;-1.30;82.36;99692.16;4794099;29;20150;-87
2021/12/07 07:07:42;;;;;;;13.60;7.28;;;;;;;-1.52;82.12;99656.94;4791150;30;20123;-86
2021/12/07 07:10:12;;;;;;;14.07;6.43;;;;;;;-1.31;82.13;99692.97;4790145;30;20086;-86
2021/12/07 07:12:39;;;;;;;12.52;6.63;;;;;;;-1.30;82.17;99689.59;4802784;29;20116;-85
2021/12/07 07:15:07;;;;;;;17.10;7.05;;;;;;;-1.26;81.91;99688.94;4812612;29;20038;-87
2021/12/07 07:17:36;;;;;;;13.63;6.63;;;;;;;-1.15;82.04;99692.00;4815798;29;20066;-87
2021/12/07 07:20:06;;;;;;;14.35;7.05;;;;;;;-1.27;81.82;99665.00;4814809;29;20058;-88
2021/12/07 07:22:34;;;;;;;12.48;6.50;;;;;;;-1.13;81.81;99673.31;4809891;29;20533;-87
2021/12/07 07:25:01;;;;;;;12.48;6.13;;;;;;;-1.16;82.19;99691.13;4804876;29;20086;-88
2021/12/07 07:27:32;;;;;;;11.15;5.93;;;;;;;-1.34;82.09;99647.53;4802182;29;20056;-87
2021/12/07 07:29:59;;;;;;;13.63;6.30;;;;;;;-1.19;81.60;99701.22;4799435;29;20055;-85
2021/12/07 07:32:27;;;;;;;12.13;6.38;;;;;;;-1.18;82.02;99691.84;4810263;29;20114;-85
2021/12/07 07:34:54;;;;;;;12.13;6.07;;;;;;;-1.13;82.17;99710.91;4805124;29;20059;-86
2021/12/07 07:37:21;;;;;;;10.48;5.45;;;;;;;-1.13;81.48;99680.13;4800624;29;20084;-86
2021/12/07 07:39:49;;;;;;;14.38;7.30;;;;;;;-1.18;81.81;99686.72;4795834;29;20072;-88
2021/12/07 07:42:18;;;;;;;11.63;6.13;;;;;;;-1.12;81.82;99680.22;4800350;29;20062;-87
2021/12/07 07:45:04;;;;;;;11.18;6.03;;;;;;;-1.13;81.92;99681.00;4774383;29;20061;-89
2021/12/07 07:47:31;;;;;;;12.43;5.63;;;;;;;-1.13;81.54;99659.63;4798689;29;20055;-87
2021/12/07 07:50:00;;;;;;;13.95;5.57;;;;;;;-1.07;81.78;99667.59;4797098;29;20073;-88
2021/12/07 07:52:29;;;;;;;12.30;5.70;;;;;;;-1.13;81.41;99637.44;4798183;29;20091;-90
2021/12/07 07:54:56;;;;;;;9.77;5.47;;;;;;;-0.96;81.44;99679.22;4798025;29;20055;-89
2021/12/07 07:57:24;;;;;;;11.70;5.53;;;;;;;-0.93;81.19;99645.16;4782700;29;20149;-90
2021/12/07 07:59:52;;;;;;;14.00;5.88;;;;;;;-0.77;81.04;99677.53;4799835;29;20089;-88
2021/12/07 08:02:20;;;;;;;10.75;5.75;;;;;;;-0.72;80.31;99661.50;4795393;29;20502;-88
2021/12/07 08:04:47;;;;;;;9.82;5.50;;;;;;;-0.70;80.46;99654.75;4796888;29;20429;-89
2021/12/07 08:07:17;;;;;;;10.20;4.63;;;;;;;-0.66;80.35;99636.13;4797761;29;20059;-87
2021/12/07 08:09:44;;;;;;;11.00;4.80;;;;;;;-0.84;80.38;99618.25;4797645;29;20531;-88
2021/12/07 08:12:12;;;;;;;9.68;4.60;;;;;;;-0.77;80.42;99642.47;4799310;29;20047;-89
2021/12/07 08:14:40;;;;;;;10.98;5.43;;;;;;;-0.67;80.09;99661.72;4801344;29;20047;-93
2021/12/07 08:17:11;;;;;;;10.95;5.30;;;;;;;-0.77;80.19;99645.06;4783620;29;20136;-91
2021/12/07 08:19:38;;;;;;;10.45;5.57;;;;;;;-0.58;79.97;99645.84;4796891;29;20100;-90
2021/12/07 08:22:06;;;;;;;9.23;5.50;;;;;;;-0.49;80.02;99633.44;4796756;29;20063;-91
2021/12/07 08:24:35;;;;;;;9.80;4.82;;;;;;;-0.62;79.85;99617.50;4799659;29;20061;-89
2021/12/07 08:27:03;;;;;;;9.73;5.13;;;;;;;-0.48;79.83;99637.75;4802206;29;20084;-90
2021/12/07 08:29:55;;;;;;;8.70;4.45;;;;;;;-0.52;79.38;99620.47;4797378;29;20046;-91
2021/12/07 08:32:23;;;;;;;9.45;4.38;;;;;;;-0.44;79.34;99634.53;4801783;29;20055;-89
2021/12/07 08:34:50;;;;;;;8.07;4.80;;;;;;;-0.46;79.59;99634.44;4796527;29;20065;-89
2021/12/07 08:37:18;;;;;;;7.70;4.47;;;;;;;-0.48;79.89;99601.84;4808858;29;20059;-90
2021/12/07 08:39:45;;;;;;;11.30;4.93;;;;;;;-0.37;79.39;99618.56;4801025;29;20038;-89
2021/12/07 08:42:13;;;;;;;8.20;4.35;;;;;;;-0.74;79.52;99542.56;4813856;29;20042;-88
2021/12/07 08:44:40;;;;;;;9.68;5.03;;;;;;;-0.24;79.06;99627.66;4794303;29;20059;-88
2021/12/07 08:47:08;;;;;;;6.93;4.30;;;;;;;-0.25;78.53;99628.50;4805436;29;20134;-89
2021/12/07 08:49:37;;;;;;;8.75;4.38;;;;;;;-0.33;78.87;99619.59;4786495;29;20374;-89
2021/12/07 08:52:05;;;;;;;8.40;4.35;;;;;;;-0.52;78.94;99589.69;4798106;29;20115;-89
2021/12/07 08:59:48;;;;;;;7.57;3.95;;;;;;;-0.54;79.74;99587.03;4798534;29;20082;-87
2021/12/07 09:02:19;;;;;;;6.97;4.30;;;;;;;-0.48;79.84;99592.44;4798921;29;20146;-89
2021/12/07 09:04:48;;;;;;;5.88;4.10;;;;;;;-0.49;79.79;99584.69;4796986;29;20105;-88
2021/12/07 09:07:15;;;;;;;8.63;4.20;;;;;;;-0.48;80.03;99591.56;4797766;29;20066;-90
2021/12/07 09:09:43;;;;;;;5.78;3.70;;;;;;;-0.46;79.26;99587.38;4795803;29;20035;-88
2021/12/07 09:12:13;;;;;;;8.13;4.15;;;;;;;-0.46;79.45;99572.84;4817660;29;20115;-88
2021/12/07 09:14:42;;;;;;;5.80;3.80;;;;;;;-0.59;79.28;99541.47;4810657;29;20075;-89
2021/12/07 09:17:12;;;;;;;7.78;4.32;;;;;;;-0.44;79.30;99573.78;4810604;29;20082;-87
2021/12/07 09:19:40;;;;;;;8.27;4.15;;;;;;;-0.31;79.38;99582.88;4810989;29;20049;-89
2021/12/07 09:22:08;;;;;;;6.63;4.10;;;;;;;-0.27;79.43;99558.25;4802489;30;20086;-90
2021/12/07 09:24:53;;;;;;;7.65;3.78;;;;;;;-0.14;79.26;99569.91;4801009;30;20351;-89
2021/12/07 09:27:21;;;;;;;7.53;3.80;;;;;;;-0.18;78.45;99570.56;4801478;29;20059;-86
2021/12/07 09:29:48;;;;;;;6.10;3.78;;;;;;;-0.16;78.78;99566.38;4792143;30;20059;-83
2021/12/07 09:32:16;;;;;;;6.55;3.92;;;;;;;-0.16;78.96;99564.69;4790915;29;20059;-87
2021/12/07 09:34:44;;;;;;;6.03;3.63;;;;;;;-0.20;79.04;99560.25;4792588;30;20055;-87
2021/12/07 09:37:11;;;;;;;5.50;4.10;;;;;;;-0.15;78.79;99574.16;4789904;29;20087;-86
2021/12/07 09:39:39;;;;;;;5.47;3.72;;;;;;;-0.12;78.61;99564.00;4792330;29;20059;-90
2021/12/07 09:42:07;;;;;;;9.98;3.83;;;;;;;-0.24;78.38;99538.72;4812102;29;20039;-87
2021/12/07 09:44:34;;;;;;;7.13;3.80;;;;;;;-0.07;78.18;99565.06;4796308;29;20085;-87
2021/12/07 09:47:02;;;;;;;5.47;3.78;;;;;;;-0.12;78.39;99576.84;4811842;29;20043;-86
2021/12/07 09:49:29;;;;;;;5.13;3.78;;;;;;;-0.10;78.75;99562.38;4811469;29;20064;-87
2021/12/07 09:51:57;;;;;;;7.15;3.75;;;;;;;-0.13;78.11;99544.28;4811034;29;20057;-86
2021/12/07 09:54:25;;;;;;;5.78;3.95;;;;;;;-0.17;78.33;99541.50;4807970;29;20497;-85
2021/12/07 09:56:52;;;;;;;5.03;3.50;;;;;;;-0.15;78.78;99551.06;4806255;29;20066;-85
2021/12/07 09:59:19;;;;;;;6.70;4.10;;;;;;;-0.09;78.81;99546.13;4801207;30;20061;-85
2021/12/07 10:01:47;;;;;;;5.47;3.80;;;;;;;-0.41;78.62;99488.34;4803216;29;20078;-87
2021/12/07 10:04:15;;;;;;;6.65;3.80;;;;;;;-0.04;78.27;99546.34;4800115;29;20059;-88
2021/12/07 10:06:48;;;;;;;7.75;3.65;;;;;;;-0.21;78.60;99526.00;4794861;29;20108;-89
2021/12/07 10:09:15;;;;;;;7.82;4.30;;;;;;;-0.07;78.25;99547.06;4775930;30;20059;-89
2021/12/07 10:11:43;;;;;;;6.57;3.78;;;;;;;-0.03;78.58;99561.81;4788084;30;20066;-88
2021/12/07 10:14:10;;;;;;;9.27;5.00;;;;;;;-0.03;78.25;99548.97;4787973;30;20494;-89
2021/12/07 10:16:44;;;;;;;8.07;4.82;;;;;;;-0.02;78.62;99545.59;4786858;30;20146;-89
2021/12/07 10:19:15;;;;;;;6.32;3.90;;;;;;;-0.12;78.72;99540.03;4786309;30;20462;-88
2021/12/07 10:22:08;;;;;;;5.88;4.03;;;;;;;-0.22;79.17;99529.34;4790017;29;20063;-88
2021/12/07 10:24:55;;;;;;;6.25;3.97;;;;;;;-0.17;78.85;99544.97;4790504;29;20051;-88
2021/12/07 10:27:39;;;;;;;6.35;3.97;;;;;;;-0.19;79.07;99550.84;4793058;29;20063;-86
2021/12/07 10:30:16;;;;;;;6.75;3.78;;;;;;;-0.16;79.02;99538.16;4794247;29;20059;-88
2021/12/07 10:33:00;;;;;;;12.00;4.78;;;;;;;-0.14;79.09;99565.63;4794294;30;20076;-89
2021/12/07 10:35:34;;;;;;;6.82;4.15;;;;;;;-0.14;78.83;99536.50;4795237;29;20055;-87
2021/12/07 10:38:20;;;;;;;7.50;4.40;;;;;;;-0.21;78.44;99541.41;4794079;30;20094;-88
2021/12/07 10:40:59;;;;;;;9.02;5.13;;;;;;;-0.10;78.84;99548.66;4792078;30;20035;-87
2021/12/07 10:43:47;;;;;;;6.95;4.28;;;;;;;-0.22;78.57;99513.94;4796444;29;20065;-89
2021/12/07 10:46:30;;;;;;;6.88;4.07;;;;;;;0.00;78.24;99543.09;4776105;30;20063;-89
2021/12/07 10:49:32;;;;;;;7.32;4.60;;;;;;;-0.04;78.76;99536.09;4793128;29;20145;-88
2021/12/07 10:52:05;;;;;;;8.63;4.47;;;;;;;0.04;78.91;99531.22;4798287;29;20059;-89
2021/12/07 10:54:37;;;;;;;6.32;3.92;;;;;;;0.06;78.17;99535.63;4792184;29;20059;-90
2021/12/07 10:57:07;;;;;;;5.85;3.80;;;;;;;-0.10;78.34;99512.72;4791931;29;20055;-89
2021/12/07 10:59:35;;;;;;;;;;;;;;;-0.11;78.57;99534.94;4791847;29;20693;-89
2021/12/07 11:02:17;;;;;;;6.53;3.80;;;;;;;-0.10;78.28;99523.84;4791353;30;19936;-88
2021/12/07 11:04:47;;;;;;;7.28;4.18;;;;;;;0.07;78.52;99551.94;4791003;30;20154;-89
2021/12/07 11:07:22;;;;;;;5.88;3.67;;;;;;;0.01;78.08;99516.59;4791869;29;20059;-90
2021/12/07 11:10:04;;;;;;;6.78;3.60;;;;;;;0.07;78.51;99514.25;4791712;29;20078;-88
2021/12/07 11:12:46;;;;;;;7.93;4.38;;;;;;;0.04;78.72;99502.97;4791377;29;20066;-88
2021/12/07 11:15:19;;;;;;;8.10;4.28;;;;;;;0.08;78.15;99503.16;4797136;30;20077;-88
2021/12/07 11:17:47;;;;;;;10.00;4.75;;;;;;;0.15;78.21;99512.88;4791038;29;20055;-88
2021/12/07 11:20:18;;;;;;;7.28;4.43;;;;;;;0.14;78.61;99511.13;4792588;29;20070;-89
2021/12/07 11:22:50;;;;;;;7.90;4.30;;;;;;;0.12;78.67;99523.00;4791497;29;20055;-89
2021/12/07 11:31:36;;;;;;;7.03;4.15;;;;;;;0.13;78.68;99516.19;4789953;30;20059;-88
2021/12/07 11:34:11;;;;;;;8.52;4.25;;;;;;;0.14;78.51;99523.97;4791471;29;20151;-87
2021/12/07 11:36:45;;;;;;;6.53;4.20;;;;;;;0.18;78.30;99507.84;4790162;29;20094;-86
2021/12/07 11:39:26;;;;;;;7.88;4.40;;;;;;;0.15;78.38;99514.56;4824638;29;20524;-88
2021/12/07 11:42:04;;;;;;;7.18;4.32;;;;;;;0.15;78.76;99509.41;4826333;29;20056;-88
2021/12/07 11:44:35;;;;;;;8.30;4.47;;;;;;;0.16;78.79;99506.03;4826723;29;20488;-83
2021/12/07 11:47:04;;;;;;;7.78;4.05;;;;;;;0.05;78.43;99495.34;4829895;29;20086;-83
2021/12/07 11:49:34;;;;;;;8.38;4.47;;;;;;;0.13;78.53;99517.09;4823618;29;20060;-84
2021/12/07 11:52:04;;;;;;;7.78;4.10;;;;;;;0.14;78.93;99513.69;4818585;29;20086;-85
2021/12/07 11:54:35;;;;;;;6.50;4.50;;;;;;;0.09;78.83;99506.63;4826102;29;20118;-85
2021/12/07 11:57:05;;;;;;;6.30;4.30;;;;;;;0.01;78.79;99493.47;4826944;29;20086;-88
2021/12/07 11:59:34;;;;;;;6.22;4.28;;;;;;;0.08;79.18;99497.16;4826702;29;20511;-86
2021/12/07 12:02:01;;;;;;;7.63;4.40;;;;;;;0.08;78.89;99487.75;4826639;29;20435;-87
2021/12/07 12:04:29;;;;;;;7.07;4.45;;;;;;;0.13;79.07;99501.66;4825933;29;20089;-87
2021/12/07 12:06:58;;;;;;;9.43;5.28;;;;;;;0.04;78.79;99479.88;4824225;29;20507;-88
2021/12/07 12:09:27;;;;;;;6.88;4.57;;;;;;;0.06;78.84;99491.09;4825329;29;20062;-86
2021/12/07 12:12:04;;;;;;;7.23;4.90;;;;;;;0.19;78.95;99511.28;4826701;29;20515;-88
2021/12/07 12:15:09;;;;;;;6.35;3.97;;;;;;;0.19;78.87;99506.16;4825509;29;20054;-85
2021/12/07 12:17:40;;;;;;;5.57;4.10;;;;;;;0.14;79.35;99503.41;4826183;29;20089;-86
2021/12/07 12:20:36;;;;;;;6.35;4.15;;;;;;;0.28;79.06;99515.91;4827595;29;20062;-85
2021/12/07 12:23:29;;;;;;;6.68;4.03;;;;;;;0.25;78.96;99515.81;4810482;29;20560;-87
2021/12/07 12:26:00;;;;;;;7.28;4.28;;;;;;;0.11;79.06;99495.59;4827560;29;20058;-88
2021/12/07 12:28:47;;;;;;;6.15;4.10;;;;;;;0.28;78.96;99524.50;4824796;29;20062;-88
2021/12/07 12:31:16;;;;;;;5.70;3.80;;;;;;;0.28;79.08;99511.66;4825728;29;20501;-88
2021/12/07 12:33:57;;;;;;;6.03;4.00;;;;;;;0.25;79.36;99520.94;4826600;29;20058;-87
2021/12/07 12:36:26;;;;;;;6.13;4.30;;;;;;;0.27;79.73;99514.16;4825867;29;20054;-88
2021/12/07 12:38:58;;;;;;;6.30;4.20;;;;;;;0.29;79.40;99509.97;4830119;29;20058;-87
2021/12/07 12:41:29;;;;;;;6.43;4.25;;;;;;;0.32;79.55;99497.22;4837791;29;20058;-84
2021/12/07 12:44:05;;;;;;;8.82;4.28;;;;;;;0.31;79.70;99522.06;4834441;29;20082;-86
2021/12/07 12:46:35;;;;;;;8.73;5.20;;;;;;;0.29;79.65;99512.53;4826929;29;20134;-89
2021/12/07 12:49:07;;;;;;;7.65;4.90;;;;;;;0.29;80.11;99522.81;4826672;29;20082;-87
2021/12/07 12:51:48;;;;;;;7.13;4.47;;;;;;;0.27;79.51;99527.00;4826243;29;20066;-88
2021/12/07 12:54:16;;;;;;;;;;;;;;;0.13;80.33;99514.50;4831144;29;20128;-86
2021/12/07 12:56:45;;;;;;;6.45;4.00;;;;;;;0.25;80.18;99531.22;4834244;29;19928;-88
2021/12/07 12:59:12;;;;;;;7.90;4.68;;;;;;;0.29;79.87;99520.25;4827053;29;20079;-88
2021/12/07 13:01:41;;;;;;;7.10;3.97;;;;;;;0.34;79.98;99514.44;4825862;29;20085;-86
2021/12/07 13:04:30;;;;;;;7.70;4.70;;;;;;;0.38;80.50;99518.03;4826366;29;20050;-87
2021/12/07 13:09:42;;;;;;;6.68;4.55;;;;;;;0.42;80.08;99513.88;4824798;29;20054;-88
2021/12/07 13:12:38;;;;;;;7.97;4.28;;;;;;;0.45;80.18;99531.97;4824469;29;20058;-88
2021/12/07 13:15:07;;;;;;;6.72;4.07;;;;;;;0.53;80.02;99525.44;4804814;29;20055;-86
2021/12/07 13:17:37;;;;;;;5.00;4.13;;;;;;;0.58;80.12;99526.47;4825975;29;20054;-88
2021/12/07 13:20:11;;;;;;;6.88;4.15;;;;;;;0.53;79.86;99508.31;4825116;29;20149;-88
2021/12/07 13:22:59;;;;;;;6.45;4.20;;;;;;;0.51;79.86;99497.09;4826461;29;20050;-87
2021/12/07 13:25:26;;;;;;;6.97;4.10;;;;;;;0.67;79.89;99521.72;4841372;29;20058;-87
2021/12/07 13:28:21;;;;;;;5.72;4.18;;;;;;;0.61;79.55;99512.06;4847058;29;20058;-84
2021/12/07 13:30:53;;;;;;;8.57;4.97;;;;;;;0.67;80.14;99520.81;4829696;29;20060;-83
2021/12/07 13:33:23;;;;;;;11.70;6.28;;;;;;;0.65;80.08;99512.19;4842814;29;20117;-82
2021/12/07 13:35:52;;;;;;;8.07;5.18;;;;;;;0.67;80.39;99500.25;4842631;29;20058;-84
2021/12/07 13:38:29;;;;;;;7.43;4.45;;;;;;;0.72;80.46;99509.03;4832538;29;20495;-85
2021/12/07 13:41:16;;;;;;;9.75;4.55;;;;;;;0.71;80.13;99514.97;4826565;29;20050;-83
2021/12/07 13:43:46;;;;;;;7.00;4.55;;;;;;;0.57;80.10;99484.50;4826059;29;20070;-85
2021/12/07 13:46:17;;;;;;;8.25;5.25;;;;;;;0.74;80.92;99509.97;4825290;29;20081;-85
2021/12/07 13:48:48;;;;;;;9.13;5.20;;;;;;;0.64;80.35;99489.84;4823728;29;20055;-85
2021/12/07 13:51:17;;;;;;;;;;;;;;;0.63;80.86;99517.28;4825493;29;20119;-84
2021/12/07 13:53:49;;;;;;;9.00;4.90;;;;;;;0.75;80.63;99511.69;4823385;29;19960;-82